CYVQ

Norman Wells Airport

Norman Wells, Northwest Territories, Canada
METAR CYVQ 250000Z 11008KT 30SM FEW058 BKN089 04/M03 A2993 RMK SC1AC6 SC TR SLP144
Observed Flight Rules
Apr-25 @ 00:00 UTC (34 minutes ago) Visual Flight Rules
Wind Visibility Clouds
110° at 8 knots 30 miles
  • Few at 5,800' AGL
  • Broken at 8,900' AGL
Temperatures Readings
Current 4°C / 39°F
Dewpoint -3°C / 27°F
Humidity 61%
Altimeter 29.93" Hg
Pressure 1014.4 hPa
Elevation 74
METAR CYVQ 250000Z 11008KT 30SM FEW058 BKN089 04/M03 A2993 RMK SC1AC6 SC TR SLP144
Observed Flight Rules
Apr-25 @ 00:00 UTC
(34 minutes ago)
VFR
Wind Visibility
110° at 8 knots 30 miles
Clouds
  • Few at 5,800' AGL
  • Broken at 8,900' AGL
Temperature Dewpoint
4°C / 39°F -3°C / 27°F
Humidity Altimeter Pressure
61% 29.93" Hg 1014.4 hPa